sensor_id;sensor_type;location;lat;lon;timestamp;P1;durP1;ratioP1;P2;durP2;ratioP2
79338;SDS011;68809;41.712;44.768;2023-04-15T00:00:31;6.30;;;3.25;;
79338;SDS011;68809;41.712;44.768;2023-04-15T00:02:58;5.43;;;3.10;;
79338;SDS011;68809;41.712;44.768;2023-04-15T00:05:28;4.90;;;2.97;;
79338;SDS011;68809;41.712;44.768;2023-04-15T00:07:55;5.47;;;2.90;;
79338;SDS011;68809;41.712;44.768;2023-04-15T00:10:21;5.55;;;2.88;;
79338;SDS011;68809;41.712;44.768;2023-04-15T00:12:47;6.57;;;3.20;;
79338;SDS011;68809;41.712;44.768;2023-04-15T00:15:13;6.00;;;2.80;;
79338;SDS011;68809;41.712;44.768;2023-04-15T00:17:39;5.90;;;3.33;;
79338;SDS011;68809;41.712;44.768;2023-04-15T00:20:06;6.37;;;3.20;;
79338;SDS011;68809;41.712;44.768;2023-04-15T00:22:32;5.70;;;3.20;;
79338;SDS011;68809;41.712;44.768;2023-04-15T00:24:58;6.55;;;3.22;;
79338;SDS011;68809;41.712;44.768;2023-04-15T00:27:24;5.72;;;3.22;;
79338;SDS011;68809;41.712;44.768;2023-04-15T00:29:50;7.57;;;4.65;;
79338;SDS011;68809;41.712;44.768;2023-04-15T00:32:17;11.60;;;5.77;;
79338;SDS011;68809;41.712;44.768;2023-04-15T00:34:43;9.85;;;5.40;;
79338;SDS011;68809;41.712;44.768;2023-04-15T00:37:09;5.97;;;3.10;;
79338;SDS011;68809;41.712;44.768;2023-04-15T00:39:35;6.40;;;3.22;;
79338;SDS011;68809;41.712;44.768;2023-04-15T00:42:03;6.30;;;3.30;;
79338;SDS011;68809;41.712;44.768;2023-04-15T00:44:30;6.53;;;3.40;;
79338;SDS011;68809;41.712;44.768;2023-04-15T00:46:56;5.90;;;3.20;;
79338;SDS011;68809;41.712;44.768;2023-04-15T00:49:23;7.65;;;3.55;;
79338;SDS011;68809;41.712;44.768;2023-04-15T00:51:50;7.30;;;3.42;;
79338;SDS011;68809;41.712;44.768;2023-04-15T00:54:16;7.00;;;3.60;;
79338;SDS011;68809;41.712;44.768;2023-04-15T00:56:42;6.17;;;3.20;;
79338;SDS011;68809;41.712;44.768;2023-04-15T00:59:08;5.75;;;3.25;;
79338;SDS011;68809;41.712;44.768;2023-04-15T01:01:35;8.70;;;3.40;;
79338;SDS011;68809;41.712;44.768;2023-04-15T01:04:02;7.00;;;3.60;;
79338;SDS011;68809;41.712;44.768;2023-04-15T01:06:29;6.13;;;3.25;;
79338;SDS011;68809;41.712;44.768;2023-04-15T01:08:57;7.17;;;3.30;;
79338;SDS011;68809;41.712;44.768;2023-04-15T01:11:24;7.97;;;3.97;;
79338;SDS011;68809;41.712;44.768;2023-04-15T01:13:50;6.75;;;3.40;;
79338;SDS011;68809;41.712;44.768;2023-04-15T01:16:18;7.07;;;3.53;;
79338;SDS011;68809;41.712;44.768;2023-04-15T01:18:44;7.45;;;3.78;;
79338;SDS011;68809;41.712;44.768;2023-04-15T01:21:11;6.67;;;3.70;;
79338;SDS011;68809;41.712;44.768;2023-04-15T01:23:37;7.22;;;3.70;;
79338;SDS011;68809;41.712;44.768;2023-04-15T01:26:05;6.95;;;3.90;;
79338;SDS011;68809;41.712;44.768;2023-04-15T01:28:33;6.30;;;3.42;;
79338;SDS011;68809;41.712;44.768;2023-04-15T01:31:10;7.43;;;3.45;;
79338;SDS011;68809;41.712;44.768;2023-04-15T01:33:41;7.27;;;3.33;;
79338;SDS011;68809;41.712;44.768;2023-04-15T01:36:26;6.88;;;3.55;;
79338;SDS011;68809;41.712;44.768;2023-04-15T01:39:11;9.20;;;3.70;;
79338;SDS011;68809;41.712;44.768;2023-04-15T01:41:55;7.75;;;3.78;;
79338;SDS011;68809;41.712;44.768;2023-04-15T01:44:24;7.43;;;3.53;;
79338;SDS011;68809;41.712;44.768;2023-04-15T01:46:52;8.43;;;3.80;;
79338;SDS011;68809;41.712;44.768;2023-04-15T01:49:20;6.53;;;3.60;;
79338;SDS011;68809;41.712;44.768;2023-04-15T01:51:48;7.20;;;3.40;;
79338;SDS011;68809;41.712;44.768;2023-04-15T01:54:16;8.80;;;4.20;;
79338;SDS011;68809;41.712;44.768;2023-04-15T01:56:43;7.53;;;3.60;;
79338;SDS011;68809;41.712;44.768;2023-04-15T01:59:10;6.37;;;3.57;;
79338;SDS011;68809;41.712;44.768;2023-04-15T02:01:38;6.82;;;3.50;;
79338;SDS011;68809;41.712;44.768;2023-04-15T02:04:06;7.75;;;3.50;;
79338;SDS011;68809;41.712;44.768;2023-04-15T02:06:33;7.57;;;3.38;;
79338;SDS011;68809;41.712;44.768;2023-04-15T02:09:02;6.93;;;3.25;;
79338;SDS011;68809;41.712;44.768;2023-04-15T02:11:30;6.20;;;3.53;;
79338;SDS011;68809;41.712;44.768;2023-04-15T02:13:57;8.43;;;3.58;;
79338;SDS011;68809;41.712;44.768;2023-04-15T02:16:26;7.05;;;3.60;;
79338;SDS011;68809;41.712;44.768;2023-04-15T02:18:53;6.82;;;3.50;;
79338;SDS011;68809;41.712;44.768;2023-04-15T02:21:20;6.70;;;3.78;;
79338;SDS011;68809;41.712;44.768;2023-04-15T02:23:48;6.10;;;3.40;;
79338;SDS011;68809;41.712;44.768;2023-04-15T02:26:15;7.05;;;3.75;;
79338;SDS011;68809;41.712;44.768;2023-04-15T02:28:42;7.40;;;3.88;;
79338;SDS011;68809;41.712;44.768;2023-04-15T02:31:10;7.53;;;3.67;;
79338;SDS011;68809;41.712;44.768;2023-04-15T02:33:37;7.03;;;3.95;;
79338;SDS011;68809;41.712;44.768;2023-04-15T02:36:04;7.50;;;3.60;;
79338;SDS011;68809;41.712;44.768;2023-04-15T02:38:33;7.78;;;3.78;;
79338;SDS011;68809;41.712;44.768;2023-04-15T02:41:01;6.38;;;3.50;;
79338;SDS011;68809;41.712;44.768;2023-04-15T02:43:29;6.32;;;3.47;;
79338;SDS011;68809;41.712;44.768;2023-04-15T02:45:56;8.60;;;3.80;;
79338;SDS011;68809;41.712;44.768;2023-04-15T02:48:23;7.53;;;3.53;;
79338;SDS011;68809;41.712;44.768;2023-04-15T02:50:51;6.55;;;3.50;;
79338;SDS011;68809;41.712;44.768;2023-04-15T02:53:18;6.13;;;3.58;;
79338;SDS011;68809;41.712;44.768;2023-04-15T02:55:46;6.55;;;3.30;;
79338;SDS011;68809;41.712;44.768;2023-04-15T02:58:13;6.03;;;3.40;;
79338;SDS011;68809;41.712;44.768;2023-04-15T03:00:41;6.93;;;3.80;;
79338;SDS011;68809;41.712;44.768;2023-04-15T03:03:08;8.63;;;4.10;;
79338;SDS011;68809;41.712;44.768;2023-04-15T03:05:36;7.43;;;4.07;;
79338;SDS011;68809;41.712;44.768;2023-04-15T03:08:07;8.02;;;3.70;;
79338;SDS011;68809;41.712;44.768;2023-04-15T03:10:35;7.18;;;4.00;;
79338;SDS011;68809;41.712;44.768;2023-04-15T03:13:02;7.00;;;3.50;;
79338;SDS011;68809;41.712;44.768;2023-04-15T03:15:31;6.35;;;3.47;;
79338;SDS011;68809;41.712;44.768;2023-04-15T03:18:00;7.57;;;3.70;;
79338;SDS011;68809;41.712;44.768;2023-04-15T03:20:28;7.30;;;3.53;;
79338;SDS011;68809;41.712;44.768;2023-04-15T03:22:55;6.57;;;3.63;;
79338;SDS011;68809;41.712;44.768;2023-04-15T03:25:24;7.30;;;3.50;;
79338;SDS011;68809;41.712;44.768;2023-04-15T03:27:51;6.63;;;3.63;;
79338;SDS011;68809;41.712;44.768;2023-04-15T03:30:18;7.95;;;3.60;;
79338;SDS011;68809;41.712;44.768;2023-04-15T03:32:46;6.63;;;3.42;;
79338;SDS011;68809;41.712;44.768;2023-04-15T03:35:13;6.88;;;3.60;;
79338;SDS011;68809;41.712;44.768;2023-04-15T03:37:41;6.13;;;3.33;;
79338;SDS011;68809;41.712;44.768;2023-04-15T03:40:08;7.22;;;3.95;;
79338;SDS011;68809;41.712;44.768;2023-04-15T03:42:36;13.52;;;7.07;;
79338;SDS011;68809;41.712;44.768;2023-04-15T03:45:04;7.63;;;4.15;;
79338;SDS011;68809;41.712;44.768;2023-04-15T03:47:32;8.85;;;4.20;;
79338;SDS011;68809;41.712;44.768;2023-04-15T03:49:59;8.87;;;4.10;;
79338;SDS011;68809;41.712;44.768;2023-04-15T03:52:26;7.65;;;4.15;;
79338;SDS011;68809;41.712;44.768;2023-04-15T03:54:54;9.45;;;4.50;;
79338;SDS011;68809;41.712;44.768;2023-04-15T03:57:21;9.38;;;4.43;;
79338;SDS011;68809;41.712;44.768;2023-04-15T03:59:48;7.88;;;4.38;;
79338;SDS011;68809;41.712;44.768;2023-04-15T04:02:16;8.97;;;4.70;;
79338;SDS011;68809;41.712;44.768;2023-04-15T04:04:43;10.40;;;4.80;;
79338;SDS011;68809;41.712;44.768;2023-04-15T04:07:14;8.98;;;4.55;;
79338;SDS011;68809;41.712;44.768;2023-04-15T04:09:42;11.80;;;5.30;;
79338;SDS011;68809;41.712;44.768;2023-04-15T04:12:09;9.95;;;5.20;;
79338;SDS011;68809;41.712;44.768;2023-04-15T04:14:37;8.37;;;4.40;;
79338;SDS011;68809;41.712;44.768;2023-04-15T04:17:04;10.80;;;5.68;;
79338;SDS011;68809;41.712;44.768;2023-04-15T04:19:32;9.68;;;5.03;;
79338;SDS011;68809;41.712;44.768;2023-04-15T04:21:59;11.07;;;4.70;;
79338;SDS011;68809;41.712;44.768;2023-04-15T04:24:27;9.88;;;5.10;;
79338;SDS011;68809;41.712;44.768;2023-04-15T04:26:54;8.73;;;4.07;;
79338;SDS011;68809;41.712;44.768;2023-04-15T04:29:23;8.73;;;3.90;;
79338;SDS011;68809;41.712;44.768;2023-04-15T04:31:50;7.55;;;4.03;;
79338;SDS011;68809;41.712;44.768;2023-04-15T04:34:17;7.18;;;3.70;;
79338;SDS011;68809;41.712;44.768;2023-04-15T04:36:44;7.38;;;3.92;;
79338;SDS011;68809;41.712;44.768;2023-04-15T04:39:12;11.57;;;3.90;;
79338;SDS011;68809;41.712;44.768;2023-04-15T04:41:39;7.50;;;4.00;;
79338;SDS011;68809;41.712;44.768;2023-04-15T04:44:06;7.57;;;3.80;;
79338;SDS011;68809;41.712;44.768;2023-04-15T04:46:34;7.40;;;3.85;;
79338;SDS011;68809;41.712;44.768;2023-04-15T04:49:01;7.00;;;3.75;;
79338;SDS011;68809;41.712;44.768;2023-04-15T04:51:28;7.13;;;3.87;;
79338;SDS011;68809;41.712;44.768;2023-04-15T04:53:56;7.82;;;3.80;;
79338;SDS011;68809;41.712;44.768;2023-04-15T04:56:24;7.75;;;3.60;;
79338;SDS011;68809;41.712;44.768;2023-04-15T04:58:52;7.43;;;3.90;;
79338;SDS011;68809;41.712;44.768;2023-04-15T05:01:19;7.70;;;4.05;;
79338;SDS011;68809;41.712;44.768;2023-04-15T05:03:46;8.03;;;4.10;;
79338;SDS011;68809;41.712;44.768;2023-04-15T05:06:13;7.88;;;3.60;;
79338;SDS011;68809;41.712;44.768;2023-04-15T05:08:41;8.43;;;3.70;;
79338;SDS011;68809;41.712;44.768;2023-04-15T05:11:08;8.07;;;4.07;;
79338;SDS011;68809;41.712;44.768;2023-04-15T05:13:35;6.97;;;3.88;;
79338;SDS011;68809;41.712;44.768;2023-04-15T05:16:04;6.10;;;3.60;;
79338;SDS011;68809;41.712;44.768;2023-04-15T05:18:32;7.60;;;3.78;;
79338;SDS011;68809;41.712;44.768;2023-04-15T05:20:59;6.13;;;3.65;;
79338;SDS011;68809;41.712;44.768;2023-04-15T05:23:27;6.13;;;3.60;;
79338;SDS011;68809;41.712;44.768;2023-04-15T05:25:54;7.10;;;3.70;;
79338;SDS011;68809;41.712;44.768;2023-04-15T05:28:21;6.90;;;3.57;;
79338;SDS011;68809;41.712;44.768;2023-04-15T05:30:48;6.63;;;3.47;;
79338;SDS011;68809;41.712;44.768;2023-04-15T05:33:16;6.75;;;3.30;;
79338;SDS011;68809;41.712;44.768;2023-04-15T05:35:43;5.72;;;3.20;;
79338;SDS011;68809;41.712;44.768;2023-04-15T05:38:10;6.85;;;3.70;;
79338;SDS011;68809;41.712;44.768;2023-04-15T05:40:38;6.40;;;3.17;;
79338;SDS011;68809;41.712;44.768;2023-04-15T05:43:05;7.38;;;3.35;;
79338;SDS011;68809;41.712;44.768;2023-04-15T05:45:32;6.28;;;3.30;;
79338;SDS011;68809;41.712;44.768;2023-04-15T05:47:59;5.97;;;3.10;;
79338;SDS011;68809;41.712;44.768;2023-04-15T05:50:27;6.95;;;3.30;;
79338;SDS011;68809;41.712;44.768;2023-04-15T05:52:54;6.40;;;3.10;;
79338;SDS011;68809;41.712;44.768;2023-04-15T05:55:21;5.78;;;3.20;;
79338;SDS011;68809;41.712;44.768;2023-04-15T05:57:49;6.72;;;3.40;;
79338;SDS011;68809;41.712;44.768;2023-04-15T06:00:16;5.78;;;3.33;;
79338;SDS011;68809;41.712;44.768;2023-04-15T06:02:44;8.27;;;3.22;;
79338;SDS011;68809;41.712;44.768;2023-04-15T06:05:11;6.47;;;3.47;;
79338;SDS011;68809;41.712;44.768;2023-04-15T06:07:39;6.22;;;2.97;;
79338;SDS011;68809;41.712;44.768;2023-04-15T06:10:07;6.78;;;3.15;;
79338;SDS011;68809;41.712;44.768;2023-04-15T06:12:35;7.20;;;3.30;;
79338;SDS011;68809;41.712;44.768;2023-04-15T06:15:02;7.15;;;3.47;;
79338;SDS011;68809;41.712;44.768;2023-04-15T06:17:30;5.70;;;3.07;;
79338;SDS011;68809;41.712;44.768;2023-04-15T06:19:57;6.07;;;2.75;;
79338;SDS011;68809;41.712;44.768;2023-04-15T06:22:24;4.28;;;2.17;;
79338;SDS011;68809;41.712;44.768;2023-04-15T06:24:52;4.45;;;2.17;;
79338;SDS011;68809;41.712;44.768;2023-04-15T06:27:19;9.07;;;3.80;;
79338;SDS011;68809;41.712;44.768;2023-04-15T06:29:47;4.80;;;2.10;;
79338;SDS011;68809;41.712;44.768;2023-04-15T06:32:14;5.10;;;2.50;;
79338;SDS011;68809;41.712;44.768;2023-04-15T06:34:41;4.97;;;2.63;;
79338;SDS011;68809;41.712;44.768;2023-04-15T06:37:09;5.22;;;2.35;;
79338;SDS011;68809;41.712;44.768;2023-04-15T06:39:41;4.97;;;2.47;;
79338;SDS011;68809;41.712;44.768;2023-04-15T06:42:10;5.07;;;2.40;;
79338;SDS011;68809;41.712;44.768;2023-04-15T06:44:38;6.05;;;2.40;;
79338;SDS011;68809;41.712;44.768;2023-04-15T06:47:05;4.72;;;2.30;;
79338;SDS011;68809;41.712;44.768;2023-04-15T06:49:32;6.97;;;2.90;;
79338;SDS011;68809;41.712;44.768;2023-04-15T06:52:01;4.40;;;2.50;;
79338;SDS011;68809;41.712;44.768;2023-04-15T06:54:28;5.50;;;2.80;;
79338;SDS011;68809;41.712;44.768;2023-04-15T06:56:56;6.05;;;2.78;;
79338;SDS011;68809;41.712;44.768;2023-04-15T06:59:23;5.75;;;2.63;;
79338;SDS011;68809;41.712;44.768;2023-04-15T07:01:50;3.58;;;1.95;;
79338;SDS011;68809;41.712;44.768;2023-04-15T07:04:18;4.45;;;2.40;;
79338;SDS011;68809;41.712;44.768;2023-04-15T07:06:46;4.17;;;2.10;;
79338;SDS011;68809;41.712;44.768;2023-04-15T07:09:13;5.57;;;2.53;;
79338;SDS011;68809;41.712;44.768;2023-04-15T07:11:41;4.38;;;2.60;;
79338;SDS011;68809;41.712;44.768;2023-04-15T07:14:08;5.18;;;2.60;;
79338;SDS011;68809;41.712;44.768;2023-04-15T07:16:35;4.72;;;2.17;;
79338;SDS011;68809;41.712;44.768;2023-04-15T07:19:03;9.83;;;2.60;;
79338;SDS011;68809;41.712;44.768;2023-04-15T07:21:30;4.07;;;2.08;;
79338;SDS011;68809;41.712;44.768;2023-04-15T07:23:58;5.35;;;2.83;;
79338;SDS011;68809;41.712;44.768;2023-04-15T07:26:25;5.82;;;2.50;;
79338;SDS011;68809;41.712;44.768;2023-04-15T07:28:52;5.05;;;2.70;;
79338;SDS011;68809;41.712;44.768;2023-04-15T07:31:20;4.77;;;2.50;;
79338;SDS011;68809;41.712;44.768;2023-04-15T07:33:47;5.25;;;2.53;;
79338;SDS011;68809;41.712;44.768;2023-04-15T07:36:15;5.80;;;2.03;;
79338;SDS011;68809;41.712;44.768;2023-04-15T07:38:42;6.22;;;2.85;;
79338;SDS011;68809;41.712;44.768;2023-04-15T07:41:09;4.22;;;2.22;;
79338;SDS011;68809;41.712;44.768;2023-04-15T07:43:37;4.13;;;1.97;;
79338;SDS011;68809;41.712;44.768;2023-04-15T07:46:05;6.35;;;2.80;;
79338;SDS011;68809;41.712;44.768;2023-04-15T07:48:33;6.53;;;3.20;;
79338;SDS011;68809;41.712;44.768;2023-04-15T07:51:01;5.88;;;3.20;;
79338;SDS011;68809;41.712;44.768;2023-04-15T07:53:29;5.30;;;2.83;;
79338;SDS011;68809;41.712;44.768;2023-04-15T07:55:57;4.57;;;2.67;;
79338;SDS011;68809;41.712;44.768;2023-04-15T07:58:24;7.00;;;2.70;;
79338;SDS011;68809;41.712;44.768;2023-04-15T08:00:52;6.20;;;3.15;;
79338;SDS011;68809;41.712;44.768;2023-04-15T08:03:21;5.55;;;2.63;;
79338;SDS011;68809;41.712;44.768;2023-04-15T08:05:49;6.00;;;2.70;;
79338;SDS011;68809;41.712;44.768;2023-04-15T08:08:16;5.53;;;3.13;;
79338;SDS011;68809;41.712;44.768;2023-04-15T08:10:44;4.95;;;2.47;;
79338;SDS011;68809;41.712;44.768;2023-04-15T08:13:11;4.63;;;2.70;;
79338;SDS011;68809;41.712;44.768;2023-04-15T08:15:38;7.07;;;3.10;;
79338;SDS011;68809;41.712;44.768;2023-04-15T08:18:06;6.85;;;2.95;;
79338;SDS011;68809;41.712;44.768;2023-04-15T08:20:33;4.20;;;2.10;;
79338;SDS011;68809;41.712;44.768;2023-04-15T08:23:01;4.13;;;2.28;;
79338;SDS011;68809;41.712;44.768;2023-04-15T08:25:29;5.40;;;2.50;;
79338;SDS011;68809;41.712;44.768;2023-04-15T08:27:56;5.88;;;2.40;;
79338;SDS011;68809;41.712;44.768;2023-04-15T08:30:23;5.75;;;2.88;;
79338;SDS011;68809;41.712;44.768;2023-04-15T08:32:51;4.70;;;2.10;;
79338;SDS011;68809;41.712;44.768;2023-04-15T08:35:18;6.38;;;2.90;;
79338;SDS011;68809;41.712;44.768;2023-04-15T08:37:45;5.00;;;2.70;;
79338;SDS011;68809;41.712;44.768;2023-04-15T08:40:13;4.43;;;2.15;;
79338;SDS011;68809;41.712;44.768;2023-04-15T08:42:40;4.97;;;2.38;;
79338;SDS011;68809;41.712;44.768;2023-04-15T08:45:10;4.83;;;2.23;;
79338;SDS011;68809;41.712;44.768;2023-04-15T08:47:38;5.25;;;2.80;;
79338;SDS011;68809;41.712;44.768;2023-04-15T08:50:07;4.47;;;2.65;;
79338;SDS011;68809;41.712;44.768;2023-04-15T08:52:36;4.82;;;2.70;;
79338;SDS011;68809;41.712;44.768;2023-04-15T08:55:04;4.70;;;2.28;;
79338;SDS011;68809;41.712;44.768;2023-04-15T08:57:32;4.00;;;2.00;;
79338;SDS011;68809;41.712;44.768;2023-04-15T09:00:00;6.28;;;2.40;;
79338;SDS011;68809;41.712;44.768;2023-04-15T09:02:30;4.30;;;2.33;;
79338;SDS011;68809;41.712;44.768;2023-04-15T09:04:57;3.83;;;1.90;;
79338;SDS011;68809;41.712;44.768;2023-04-15T09:07:24;4.07;;;2.35;;
79338;SDS011;68809;41.712;44.768;2023-04-15T09:09:52;4.57;;;2.23;;
79338;SDS011;68809;41.712;44.768;2023-04-15T09:12:20;5.35;;;2.70;;
79338;SDS011;68809;41.712;44.768;2023-04-15T09:14:47;4.63;;;2.10;;
79338;SDS011;68809;41.712;44.768;2023-04-15T09:17:17;4.38;;;1.90;;
79338;SDS011;68809;41.712;44.768;2023-04-15T09:19:47;4.50;;;2.72;;
79338;SDS011;68809;41.712;44.768;2023-04-15T09:22:15;4.50;;;2.47;;
79338;SDS011;68809;41.712;44.768;2023-04-15T09:24:42;4.93;;;2.92;;
79338;SDS011;68809;41.712;44.768;2023-04-15T09:27:10;4.88;;;2.42;;
79338;SDS011;68809;41.712;44.768;2023-04-15T09:29:40;5.90;;;2.72;;
79338;SDS011;68809;41.712;44.768;2023-04-15T09:32:11;4.72;;;2.42;;
79338;SDS011;68809;41.712;44.768;2023-04-15T09:34:40;4.03;;;2.77;;
79338;SDS011;68809;41.712;44.768;2023-04-15T09:37:09;3.97;;;2.15;;
79338;SDS011;68809;41.712;44.768;2023-04-15T09:39:47;4.47;;;1.65;;
79338;SDS011;68809;41.712;44.768;2023-04-15T09:42:18;4.30;;;2.17;;
79338;SDS011;68809;41.712;44.768;2023-04-15T09:44:52;5.50;;;2.75;;
79338;SDS011;68809;41.712;44.768;2023-04-15T09:47:29;4.27;;;2.07;;
79338;SDS011;68809;41.712;44.768;2023-04-15T09:49:58;5.22;;;2.30;;
79338;SDS011;68809;41.712;44.768;2023-04-15T09:52:26;3.70;;;1.90;;
79338;SDS011;68809;41.712;44.768;2023-04-15T09:54:55;4.22;;;2.10;;
79338;SDS011;68809;41.712;44.768;2023-04-15T09:57:24;4.22;;;1.92;;
79338;SDS011;68809;41.712;44.768;2023-04-15T09:59:51;4.93;;;1.93;;
79338;SDS011;68809;41.712;44.768;2023-04-15T10:02:18;4.78;;;2.63;;
79338;SDS011;68809;41.712;44.768;2023-04-15T10:04:50;4.68;;;2.55;;
79338;SDS011;68809;41.712;44.768;2023-04-15T10:07:20;4.07;;;1.67;;
79338;SDS011;68809;41.712;44.768;2023-04-15T10:09:51;4.18;;;2.40;;
79338;SDS011;68809;41.712;44.768;2023-04-15T10:12:20;5.03;;;2.40;;
79338;SDS011;68809;41.712;44.768;2023-04-15T10:14:52;4.57;;;2.50;;
79338;SDS011;68809;41.712;44.768;2023-04-15T10:17:24;4.05;;;2.15;;
79338;SDS011;68809;41.712;44.768;2023-04-15T10:19:55;3.95;;;2.00;;
79338;SDS011;68809;41.712;44.768;2023-04-15T10:22:22;4.32;;;2.40;;
79338;SDS011;68809;41.712;44.768;2023-04-15T10:24:50;4.63;;;2.63;;
79338;SDS011;68809;41.712;44.768;2023-04-15T10:27:18;5.53;;;2.13;;
79338;SDS011;68809;41.712;44.768;2023-04-15T10:29:47;4.28;;;1.80;;
79338;SDS011;68809;41.712;44.768;2023-04-15T10:32:17;4.28;;;2.30;;
79338;SDS011;68809;41.712;44.768;2023-04-15T10:34:46;6.32;;;2.72;;
79338;SDS011;68809;41.712;44.768;2023-04-15T10:37:19;3.57;;;1.90;;
79338;SDS011;68809;41.712;44.768;2023-04-15T10:39:47;4.38;;;2.17;;
79338;SDS011;68809;41.712;44.768;2023-04-15T10:42:16;5.50;;;2.80;;
79338;SDS011;68809;41.712;44.768;2023-04-15T10:44:50;4.32;;;2.42;;
79338;SDS011;68809;41.712;44.768;2023-04-15T10:47:19;3.80;;;1.92;;
79338;SDS011;68809;41.712;44.768;2023-04-15T10:49:48;3.77;;;1.93;;
79338;SDS011;68809;41.712;44.768;2023-04-15T10:52:20;3.30;;;1.65;;
79338;SDS011;68809;41.712;44.768;2023-04-15T10:54:49;3.75;;;1.65;;
79338;SDS011;68809;41.712;44.768;2023-04-15T10:57:23;4.40;;;2.17;;
79338;SDS011;68809;41.712;44.768;2023-04-15T11:00:00;4.13;;;2.03;;
79338;SDS011;68809;41.712;44.768;2023-04-15T11:02:37;3.50;;;2.00;;
79338;SDS011;68809;41.712;44.768;2023-04-15T11:05:07;4.85;;;2.30;;
79338;SDS011;68809;41.712;44.768;2023-04-15T11:07:56;4.93;;;2.47;;
79338;SDS011;68809;41.712;44.768;2023-04-15T11:12:52;5.72;;;2.42;;
79338;SDS011;68809;41.712;44.768;2023-04-15T11:20:35;3.85;;;2.30;;
79338;SDS011;68809;41.712;44.768;2023-04-15T11:23:03;3.63;;;2.00;;
79338;SDS011;68809;41.712;44.768;2023-04-15T11:25:34;5.38;;;2.15;;
79338;SDS011;68809;41.712;44.768;2023-04-15T11:28:05;4.77;;;2.37;;
79338;SDS011;68809;41.712;44.768;2023-04-15T11:30:34;5.22;;;2.10;;
79338;SDS011;68809;41.712;44.768;2023-04-15T11:33:04;3.90;;;2.03;;
79338;SDS011;68809;41.712;44.768;2023-04-15T11:35:33;4.47;;;2.05;;
79338;SDS011;68809;41.712;44.768;2023-04-15T11:38:04;4.93;;;2.15;;
79338;SDS011;68809;41.712;44.768;2023-04-15T11:40:39;4.17;;;1.90;;
79338;SDS011;68809;41.712;44.768;2023-04-15T11:43:07;5.35;;;2.67;;
79338;SDS011;68809;41.712;44.768;2023-04-15T11:45:36;4.55;;;2.60;;
79338;SDS011;68809;41.712;44.768;2023-04-15T11:48:08;5.13;;;2.58;;
79338;SDS011;68809;41.712;44.768;2023-04-15T11:50:37;6.30;;;3.20;;
79338;SDS011;68809;41.712;44.768;2023-04-15T11:53:08;5.10;;;2.70;;
79338;SDS011;68809;41.712;44.768;2023-04-15T11:55:45;4.05;;;1.90;;
79338;SDS011;68809;41.712;44.768;2023-04-15T11:58:13;4.55;;;2.35;;
79338;SDS011;68809;41.712;44.768;2023-04-15T12:00:44;4.15;;;1.90;;
79338;SDS011;68809;41.712;44.768;2023-04-15T12:03:25;3.55;;;1.95;;
79338;SDS011;68809;41.712;44.768;2023-04-15T12:13:47;4.15;;;2.33;;
79338;SDS011;68809;41.712;44.768;2023-04-15T12:16:18;6.15;;;2.60;;
79338;SDS011;68809;41.712;44.768;2023-04-15T12:18:51;4.40;;;2.23;;
79338;SDS011;68809;41.712;44.768;2023-04-15T12:21:18;4.65;;;2.45;;
79338;SDS011;68809;41.712;44.768;2023-04-15T12:23:48;3.85;;;1.85;;
79338;SDS011;68809;41.712;44.768;2023-04-15T12:26:25;4.72;;;2.25;;
79338;SDS011;68809;41.712;44.768;2023-04-15T12:29:00;4.72;;;2.50;;
79338;SDS011;68809;41.712;44.768;2023-04-15T12:31:26;3.97;;;2.17;;
79338;SDS011;68809;41.712;44.768;2023-04-15T12:33:56;6.55;;;3.03;;
79338;SDS011;68809;41.712;44.768;2023-04-15T12:36:23;4.60;;;3.00;;
79338;SDS011;68809;41.712;44.768;2023-04-15T12:38:50;4.43;;;2.65;;
79338;SDS011;68809;41.712;44.768;2023-04-15T12:41:16;4.60;;;2.15;;
79338;SDS011;68809;41.712;44.768;2023-04-15T12:43:43;4.70;;;2.57;;
79338;SDS011;68809;41.712;44.768;2023-04-15T12:46:11;4.10;;;2.10;;
79338;SDS011;68809;41.712;44.768;2023-04-15T12:48:39;4.75;;;2.88;;
79338;SDS011;68809;41.712;44.768;2023-04-15T12:51:06;4.13;;;2.03;;
79338;SDS011;68809;41.712;44.768;2023-04-15T12:53:32;3.80;;;2.00;;
79338;SDS011;68809;41.712;44.768;2023-04-15T12:55:58;4.60;;;1.93;;
79338;SDS011;68809;41.712;44.768;2023-04-15T12:58:25;3.78;;;2.03;;
79338;SDS011;68809;41.712;44.768;2023-04-15T13:00:57;3.72;;;2.08;;
79338;SDS011;68809;41.712;44.768;2023-04-15T13:03:23;5.05;;;2.60;;
79338;SDS011;68809;41.712;44.768;2023-04-15T13:05:50;3.50;;;2.05;;
79338;SDS011;68809;41.712;44.768;2023-04-15T13:08:17;5.77;;;2.07;;
79338;SDS011;68809;41.712;44.768;2023-04-15T13:10:43;4.43;;;2.28;;
79338;SDS011;68809;41.712;44.768;2023-04-15T13:13:09;3.67;;;1.95;;
79338;SDS011;68809;41.712;44.768;2023-04-15T13:15:36;4.40;;;2.17;;
79338;SDS011;68809;41.712;44.768;2023-04-15T13:18:03;5.15;;;3.00;;
79338;SDS011;68809;41.712;44.768;2023-04-15T13:20:31;5.83;;;2.70;;
79338;SDS011;68809;41.712;44.768;2023-04-15T13:22:57;5.78;;;3.05;;
79338;SDS011;68809;41.712;44.768;2023-04-15T13:25:23;6.43;;;2.85;;
79338;SDS011;68809;41.712;44.768;2023-04-15T13:27:50;5.38;;;2.90;;
79338;SDS011;68809;41.712;44.768;2023-04-15T13:30:17;4.80;;;2.38;;
79338;SDS011;68809;41.712;44.768;2023-04-15T13:32:43;5.43;;;2.90;;
79338;SDS011;68809;41.712;44.768;2023-04-15T13:35:09;5.07;;;2.47;;
79338;SDS011;68809;41.712;44.768;2023-04-15T13:37:35;4.82;;;2.67;;
79338;SDS011;68809;41.712;44.768;2023-04-15T13:40:02;3.85;;;2.13;;
79338;SDS011;68809;41.712;44.768;2023-04-15T13:42:28;7.07;;;2.17;;
79338;SDS011;68809;41.712;44.768;2023-04-15T13:44:55;5.67;;;2.80;;
79338;SDS011;68809;41.712;44.768;2023-04-15T13:47:27;6.10;;;2.95;;
79338;SDS011;68809;41.712;44.768;2023-04-15T13:49:53;4.97;;;2.50;;
79338;SDS011;68809;41.712;44.768;2023-04-15T13:52:21;4.13;;;2.30;;
79338;SDS011;68809;41.712;44.768;2023-04-15T13:54:48;4.13;;;2.35;;
79338;SDS011;68809;41.712;44.768;2023-04-15T13:57:14;6.03;;;2.73;;
79338;SDS011;68809;41.712;44.768;2023-04-15T13:59:40;4.10;;;1.92;;
79338;SDS011;68809;41.712;44.768;2023-04-15T14:02:06;3.92;;;2.20;;
79338;SDS011;68809;41.712;44.768;2023-04-15T14:04:33;4.78;;;2.60;;
79338;SDS011;68809;41.712;44.768;2023-04-15T14:06:59;4.82;;;2.15;;
79338;SDS011;68809;41.712;44.768;2023-04-15T14:09:25;4.80;;;2.37;;
79338;SDS011;68809;41.712;44.768;2023-04-15T14:11:52;3.63;;;2.05;;
79338;SDS011;68809;41.712;44.768;2023-04-15T14:14:18;3.97;;;2.15;;
79338;SDS011;68809;41.712;44.768;2023-04-15T14:16:44;4.95;;;2.67;;
79338;SDS011;68809;41.712;44.768;2023-04-15T14:19:10;5.80;;;2.70;;
79338;SDS011;68809;41.712;44.768;2023-04-15T14:21:37;4.00;;;2.27;;
79338;SDS011;68809;41.712;44.768;2023-04-15T14:24:03;3.50;;;1.73;;
79338;SDS011;68809;41.712;44.768;2023-04-15T14:26:30;5.30;;;2.20;;
79338;SDS011;68809;41.712;44.768;2023-04-15T14:28:56;3.75;;;1.95;;
79338;SDS011;68809;41.712;44.768;2023-04-15T14:31:22;3.95;;;2.13;;
79338;SDS011;68809;41.712;44.768;2023-04-15T14:33:48;4.80;;;2.00;;
79338;SDS011;68809;41.712;44.768;2023-04-15T14:36:14;4.32;;;2.53;;
79338;SDS011;68809;41.712;44.768;2023-04-15T14:38:40;5.13;;;1.92;;
79338;SDS011;68809;41.712;44.768;2023-04-15T14:41:07;5.85;;;2.70;;
79338;SDS011;68809;41.712;44.768;2023-04-15T14:43:34;4.40;;;2.25;;
79338;SDS011;68809;41.712;44.768;2023-04-15T14:46:00;4.43;;;2.40;;
79338;SDS011;68809;41.712;44.768;2023-04-15T14:48:27;6.22;;;2.38;;
79338;SDS011;68809;41.712;44.768;2023-04-15T14:50:53;4.72;;;2.58;;
79338;SDS011;68809;41.712;44.768;2023-04-15T14:53:19;4.88;;;2.70;;